Auburn, Washington
Current Conditions -  °F | °C
As of 6:53 PM on Friday 31 Oct 2014 (Local Time) from KSEA Reporting Station
Scattered Clouds Scattered Clouds  
Wind Chill: 52°   Ceiling: Unl
Heat Index: 52°   Visibility: 10mi
Dew Point: 47°   Wind: 6mph
Humidity: 83%   Direction: 120°ESE
Pressure: 29.86"   Gusts: NA
Location:  47.31°N, 122.23°W
Report Text: KSEA 010153Z 12005KT 10SM FEW020 SCT060 SCT250 11/08 A2986 RMK AO2 SLP118 T01110083
Loading
Personal Weather Stations






























Interactive Weather Map New forecast layout! Learn more

10-Day Weather Forecast

Advertisements
Track Severe Weather on mobile